Time;durP1;ratioP1;P1;durP2;ratioP2;P2;SDS_P1;SDS_P2;PMS_P1;PMS_P2;Temp;Humidity;BMP_temperature;BMP_pressure;BME280_temperature;BME280_humidity;BME280_pressure;Samples;Min_cycle;Max_cycle;Signal;HPM_P1;HPM_P2
2023/04/02 00:00:11;;;;;;;2.47;1.08;;;;;10.50;97652.00;;;;5013087;28;20045;-59
2023/04/02 00:02:47;;;;;;;1.33;1.00;;;;;10.50;97652.00;;;;5015097;28;20049;-58
2023/04/02 00:05:18;;;;;;;2.65;1.10;;;;;10.50;97657.00;;;;5013726;28;20596;-58
2023/04/02 00:07:50;;;;;;;1.00;0.90;;;;;10.50;97657.00;;;;5015016;28;20083;-59
2023/04/02 00:10:31;;;;;;;0.90;0.90;;;;;10.50;97658.00;;;;5014418;28;20057;-59
2023/04/02 00:13:09;;;;;;;1.30;1.00;;;;;10.50;97660.00;;;;5014821;28;20049;-59
2023/04/02 00:15:41;;;;;;;0.77;0.77;;;;;10.60;97668.00;;;;5015159;28;20704;-59
2023/04/02 00:18:15;;;;;;;1.05;0.90;;;;;10.70;97668.00;;;;5014926;28;20050;-59
2023/04/02 00:20:46;;;;;;;1.10;1.00;;;;;10.70;97671.00;;;;5014328;28;20049;-60
2023/04/02 00:23:14;;;;;;;1.70;1.33;;;;;10.70;97665.00;;;;5013507;28;20045;-60
2023/04/02 00:25:44;;;;;;;1.35;1.25;;;;;10.70;97674.00;;;;5013253;28;20183;-60
2023/04/02 00:28:18;;;;;;;3.50;1.40;;;;;10.80;97671.00;;;;5020551;28;20069;-63
2023/04/02 00:30:51;;;;;;;3.05;1.20;;;;;10.70;97671.00;;;;5019985;28;20053;-62
2023/04/02 00:33:20;;;;;;;2.40;2.20;;;;;10.80;97680.00;;;;5016624;28;20069;-60
2023/04/02 00:35:49;;;;;;;1.60;1.50;;;;;10.80;97677.00;;;;5014334;28;20503;-61
2023/04/02 00:38:34;;;;;;;2.45;1.80;;;;;10.90;97689.00;;;;5014321;28;20414;-60
2023/04/02 00:41:02;;;;;;;3.38;2.20;;;;;10.90;97677.00;;;;5013041;28;20057;-61
2023/04/02 00:43:37;;;;;;;3.47;1.77;;;;;11.00;97690.00;;;;5013294;28;20060;-61
2023/04/02 00:46:13;;;;;;;3.33;1.77;;;;;11.00;97680.00;;;;5012751;28;20049;-60
2023/04/02 00:48:47;;;;;;;3.78;2.10;;;;;10.90;97687.00;;;;5013804;28;20517;-60
2023/04/02 00:51:19;;;;;;;4.32;2.00;;;;;10.90;97687.00;;;;5014110;28;20513;-60
2023/04/02 00:53:49;;;;;;;3.72;1.85;;;;;10.90;97684.00;;;;5014326;28;20064;-60
2023/04/02 00:56:30;;;;;;;2.30;2.10;;;;;10.90;97684.00;;;;5018340;28;20109;-62
2023/04/02 00:58:57;;;;;;;4.20;2.30;;;;;11.00;97683.00;;;;5034823;28;20045;-62
2023/04/02 01:01:28;;;;;;;3.05;2.13;;;;;10.90;97679.00;;;;5017954;28;20052;-62
2023/04/02 01:03:58;;;;;;;2.13;1.92;;;;;10.90;97686.00;;;;5035092;28;20046;-61
2023/04/02 01:06:29;;;;;;;4.63;2.30;;;;;10.90;97691.00;;;;5023117;28;20052;-61
2023/04/02 01:09:20;;;;;;;3.53;2.40;;;;;11.00;97690.00;;;;5019195;28;20085;-61
2023/04/02 01:12:13;;;;;;;4.18;2.30;;;;;10.90;97696.00;;;;5021080;28;20398;-61
2023/04/02 01:14:59;;;;;;;2.72;2.10;;;;;10.90;97694.00;;;;5019867;28;20045;-60
2023/04/02 01:17:47;;;;;;;4.10;2.00;;;;;10.90;97690.00;;;;5019769;28;20049;-63
2023/04/02 01:20:46;;;;;;;4.38;2.25;;;;;10.90;97699.00;;;;5017645;28;20046;-62
2023/04/02 01:23:21;;;;;;;2.70;2.10;;;;;10.90;97700.00;;;;5017576;28;20060;-62
2023/04/02 01:25:58;;;;;;;6.53;2.50;;;;;10.90;97696.00;;;;5019537;28;20495;-63
2023/04/02 01:28:32;;;;;;;2.60;2.40;;;;;10.90;97694.00;;;;5019774;28;20073;-62
2023/04/02 01:31:01;;;;;;;2.88;2.08;;;;;10.90;97704.00;;;;5018396;28;20104;-63
2023/04/02 01:33:31;;;;;;;2.22;1.83;;;;;10.90;97706.00;;;;5034658;28;20077;-63
2023/04/02 01:36:10;;;;;;;4.65;2.20;;;;;10.90;97710.00;;;;5017899;28;20132;-62
2023/04/02 01:38:47;;;;;;;4.30;2.63;;;;;10.90;97705.00;;;;5017453;28;20515;-61
2023/04/02 01:41:35;;;;;;;2.95;1.60;;;;;10.90;97715.00;;;;5018381;28;20053;-62
2023/04/02 01:44:17;;;;;;;2.20;2.00;;;;;10.90;97714.00;;;;5018435;28;20462;-61
2023/04/02 01:46:47;;;;;;;2.15;1.80;;;;;10.90;97714.00;;;;5019727;28;20048;-61
2023/04/02 01:49:18;;;;;;;1.95;1.73;;;;;10.90;97721.00;;;;5017574;28;20046;-61
2023/04/02 01:51:51;;;;;;;2.22;1.83;;;;;10.90;97721.00;;;;5018286;28;20456;-62
2023/04/02 01:54:21;;;;;;;2.28;1.73;;;;;11.00;97722.00;;;;5018378;28;20046;-60
2023/04/02 01:56:49;;;;;;;2.03;1.70;;;;;11.00;97730.00;;;;5018151;28;20065;-60
2023/04/02 01:59:20;;;;;;;3.05;2.55;;;;;11.00;97730.00;;;;5016280;28;20453;-61
2023/04/02 02:01:59;;;;;;;2.35;2.15;;;;;10.90;97733.00;;;;5016653;28;20045;-63
2023/04/02 02:04:28;;;;;;;1.95;1.75;;;;;10.90;97732.00;;;;5017175;28;20050;-62
2023/04/02 02:06:57;;;;;;;4.15;1.88;;;;;11.00;97737.00;;;;5016882;28;20054;-62
2023/04/02 02:09:27;;;;;;;2.40;1.92;;;;;11.00;97733.00;;;;5015254;28;20058;-62
2023/04/02 02:11:56;;;;;;;2.08;1.50;;;;;11.00;97727.00;;;;5016687;28;20065;-63
2023/04/02 02:14:25;;;;;;;2.20;1.58;;;;;11.00;97742.00;;;;5018191;28;20491;-62
2023/04/02 02:17:00;;;;;;;2.17;1.60;;;;;10.90;97734.00;;;;5018015;28;20085;-62
2023/04/02 02:19:37;;;;;;;4.88;1.88;;;;;10.80;97741.00;;;;5017747;28;20107;-63
2023/04/02 02:22:27;;;;;;;3.35;1.60;;;;;10.90;97740.00;;;;5016678;28;20062;-62
2023/04/02 02:24:56;;;;;;;2.03;1.90;;;;;10.90;97757.00;;;;5000682;28;20388;-62
2023/04/02 02:27:22;;;;;;;2.20;1.80;;;;;10.90;97747.00;;;;5017251;28;20061;-61
2023/04/02 02:30:04;;;;;;;3.33;1.80;;;;;10.90;97755.00;;;;5017126;28;20052;-63
2023/04/02 02:32:32;;;;;;;2.55;1.65;;;;;11.00;97755.00;;;;5017239;28;20053;-61
2023/04/02 02:35:10;;;;;;;1.70;1.60;;;;;11.00;97761.00;;;;5016510;28;20547;-62
2023/04/02 02:37:41;;;;;;;2.85;1.70;;;;;11.00;97765.00;;;;5018221;28;20042;-63
2023/04/02 02:40:19;;;;;;;3.42;1.83;;;;;11.10;97765.00;;;;5016510;28;20049;-62
2023/04/02 02:43:03;;;;;;;2.58;1.92;;;;;11.10;97769.00;;;;5016287;28;20054;-63
2023/04/02 02:45:37;;;;;;;2.05;1.85;;;;;11.00;97770.00;;;;5016258;28;20050;-62
2023/04/02 02:48:07;;;;;;;;;;;;;11.10;97770.00;;;;5019012;28;20521;-62
2023/04/02 02:50:34;;;;;;;3.47;1.92;;;;;11.00;97777.00;;;;5018202;28;19933;-63
2023/04/02 02:53:19;;;;;;;1.90;1.80;;;;;11.00;97770.00;;;;5016967;28;20049;-62
2023/04/02 02:55:49;;;;;;;2.28;2.08;;;;;11.00;97774.00;;;;5015587;28;20057;-62
2023/04/02 02:58:26;;;;;;;3.33;2.05;;;;;11.00;97775.00;;;;5015095;28;20054;-62
2023/04/02 03:01:02;;;;;;;2.20;1.90;;;;;11.00;97781.00;;;;5015393;28;20514;-60
2023/04/02 03:03:32;;;;;;;3.35;2.05;;;;;11.00;97779.00;;;;5015134;28;20049;-61
2023/04/02 03:06:06;;;;;;;3.65;2.10;;;;;10.90;97783.00;;;;5015266;28;20076;-60
2023/04/02 03:08:42;;;;;;;2.45;1.75;;;;;10.90;97789.00;;;;5014717;28;20125;-61
2023/04/02 03:11:31;;;;;;;3.25;2.13;;;;;10.90;97794.00;;;;5034105;28;20050;-61
2023/04/02 03:14:30;;;;;;;2.45;2.25;;;;;11.00;97794.00;;;;5002869;28;20113;-61
2023/04/02 03:17:05;;;;;;;3.17;2.35;;;;;11.00;97799.00;;;;5018217;28;20061;-62
2023/04/02 03:19:44;;;;;;;2.13;1.85;;;;;11.00;97799.00;;;;5003419;28;20052;-61
2023/04/02 03:22:30;;;;;;;3.33;2.50;;;;;11.00;97809.00;;;;5023364;28;20049;-62
2023/04/02 03:25:04;;;;;;;2.58;2.38;;;;;10.90;97809.00;;;;5019409;28;20046;-62
2023/04/02 03:27:40;;;;;;;2.83;2.33;;;;;10.90;97813.00;;;;5018487;28;20115;-61
2023/04/02 03:30:25;;;;;;;2.60;2.40;;;;;10.90;97824.00;;;;5020951;28;20137;-60
2023/04/02 03:33:05;;;;;;;3.38;2.60;;;;;10.90;97815.00;;;;5025243;28;20060;-62
2023/04/02 03:35:47;;;;;;;3.22;2.28;;;;;10.90;97823.00;;;;5024597;28;20042;-62
2023/04/02 03:38:17;;;;;;;2.90;2.58;;;;;10.80;97817.00;;;;5025477;28;20057;-61
2023/04/02 03:41:10;;;;;;;2.40;2.20;;;;;10.90;97826.00;;;;5025106;28;20117;-60
2023/04/02 03:43:45;;;;;;;3.93;2.60;;;;;10.90;97825.00;;;;5025950;28;20034;-60
2023/04/02 03:46:35;;;;;;;3.35;2.40;;;;;10.90;97834.00;;;;5025315;28;20046;-61
2023/04/02 03:49:10;;;;;;;2.90;2.35;;;;;10.90;97829.00;;;;5025086;28;20060;-62
2023/04/02 03:52:04;;;;;;;2.88;2.58;;;;;10.90;97840.00;;;;5026488;28;20558;-60
2023/04/02 03:54:32;;;;;;;2.42;2.22;;;;;10.90;97835.00;;;;5025789;28;20050;-61
2023/04/02 03:56:59;;;;;;;2.55;2.35;;;;;10.80;97835.00;;;;5026036;28;20045;-60
2023/04/02 03:59:37;;;;;;;3.13;2.63;;;;;10.90;97839.00;;;;5024807;28;20045;-61
2023/04/02 04:02:10;;;;;;;2.65;2.45;;;;;10.90;97848.00;;;;5025219;28;20104;-61
2023/04/02 04:04:39;;;;;;;2.58;2.38;;;;;10.90;97845.00;;;;5026602;28;20462;-62
2023/04/02 04:07:14;;;;;;;4.07;2.30;;;;;10.80;97842.00;;;;5041438;28;20049;-61
2023/04/02 04:09:45;;;;;;;3.40;2.30;;;;;10.90;97845.00;;;;5041053;28;20050;-61
2023/04/02 04:12:28;;;;;;;2.40;2.20;;;;;10.90;97857.00;;;;5025999;28;20277;-61
2023/04/02 04:15:08;;;;;;;2.50;2.30;;;;;10.90;97868.00;;;;5041358;28;20414;-62
2023/04/02 04:18:00;;;;;;;2.65;2.35;;;;;11.00;97867.00;;;;5026390;28;20114;-61
2023/04/02 04:20:49;;;;;;;3.35;2.72;;;;;11.00;97866.00;;;;5041500;28;20042;-60
2023/04/02 04:23:31;;;;;;;3.33;2.55;;;;;10.90;97877.00;;;;5022353;28;20061;-61
2023/04/02 04:26:18;;;;;;;2.95;2.72;;;;;10.90;97877.00;;;;5019983;28;20070;-61
2023/04/02 04:29:14;;;;;;;2.67;2.47;;;;;11.00;97874.00;;;;5019128;28;20069;-60
2023/04/02 04:31:54;;;;;;;2.20;2.00;;;;;10.90;97884.00;;;;4993514;28;20418;-60
2023/04/02 04:34:52;;;;;;;4.07;2.30;;;;;10.90;97882.00;;;;5004477;28;20050;-61
2023/04/02 04:37:28;;;;;;;2.63;2.42;;;;;10.80;97887.00;;;;5020055;28;20045;-61
2023/04/02 04:39:59;;;;;;;3.90;2.67;;;;;10.80;97889.00;;;;5019749;28;20053;-62
2023/04/02 04:42:32;;;;;;;2.75;2.45;;;;;10.80;97893.00;;;;5020251;28;20109;-62
2023/04/02 04:45:10;;;;;;;3.15;2.42;;;;;10.80;97893.00;;;;5020745;28;20070;-62
2023/04/02 04:47:46;;;;;;;2.80;2.60;;;;;10.90;97899.00;;;;5036408;28;20046;-60
2023/04/02 04:50:20;;;;;;;3.15;2.85;;;;;10.90;97903.00;;;;5035419;28;20041;-62
2023/04/02 04:52:47;;;;;;;3.20;2.90;;;;;10.90;97908.00;;;;5021497;28;20041;-62
2023/04/02 04:55:27;;;;;;;3.22;2.42;;;;;10.90;97910.00;;;;5019453;28;20042;-62
2023/04/02 04:58:10;;;;;;;3.08;2.72;;;;;10.90;97917.00;;;;5019379;28;20038;-62
2023/04/02 05:00:55;;;;;;;3.22;2.88;;;;;10.90;97914.00;;;;5016233;28;20136;-60
2023/04/02 05:03:47;;;;;;;3.40;2.28;;;;;10.80;97911.00;;;;5014022;28;20046;-60
2023/04/02 05:06:31;;;;;;;3.50;2.47;;;;;10.90;97920.00;;;;4990932;28;20061;-60
2023/04/02 05:09:06;;;;;;;3.65;2.80;;;;;10.80;97920.00;;;;5012235;28;20124;-60
2023/04/02 05:11:40;;;;;;;3.88;2.72;;;;;10.70;97923.00;;;;5012357;28;20077;-60
2023/04/02 05:14:31;;;;;;;3.08;2.78;;;;;10.80;97929.00;;;;5012648;28;20046;-59
2023/04/02 05:17:22;;;;;;;3.05;2.75;;;;;10.80;97931.00;;;;5012195;28;20050;-59
2023/04/02 05:19:58;;;;;;;3.35;3.05;;;;;10.80;97938.00;;;;5011829;28;20072;-59
2023/04/02 05:22:37;;;;;;;4.40;3.05;;;;;10.80;97937.00;;;;5013790;28;20506;-59
2023/04/02 05:25:19;;;;;;;4.90;2.78;;;;;10.90;97945.00;;;;5012245;28;20469;-59
2023/04/02 05:28:04;;;;;;;2.72;2.53;;;;;11.00;97954.00;;;;5013949;28;20537;-60
2023/04/02 05:30:45;;;;;;;3.83;2.50;;;;;11.00;97954.00;;;;5012991;28;20054;-59
2023/04/02 05:33:26;;;;;;;2.80;2.60;;;;;11.00;97958.00;;;;5011258;28;20049;-59
2023/04/02 05:36:00;;;;;;;3.22;2.92;;;;;11.00;97960.00;;;;5012246;28;20576;-59
2023/04/02 05:38:33;;;;;;;3.22;2.92;;;;;11.00;97959.00;;;;5012017;28;20049;-56
2023/04/02 05:41:01;;;;;;;3.25;2.85;;;;;11.00;97964.00;;;;5012473;28;20249;-56
2023/04/02 05:43:34;;;;;;;3.20;2.80;;;;;11.00;97966.00;;;;5012106;28;20136;-58
2023/04/02 05:46:23;;;;;;;3.42;3.13;;;;;11.10;97980.00;;;;5011831;28;20045;-58
2023/04/02 05:49:06;;;;;;;3.30;3.00;;;;;11.10;97984.00;;;;5013171;28;20058;-59
2023/04/02 05:51:48;;;;;;;3.67;3.22;;;;;11.10;97986.00;;;;5012100;28;20050;-59
2023/04/02 05:54:29;;;;;;;6.22;2.78;;;;;11.00;97991.00;;;;5028294;28;20046;-62
2023/04/02 05:57:03;;;;;;;2.75;2.50;;;;;11.10;97986.00;;;;5019151;28;20113;-61
2023/04/02 05:59:38;;;;;;;3.40;2.65;;;;;11.00;97999.00;;;;5017527;28;20054;-62
2023/04/02 06:02:35;;;;;;;4.65;2.85;;;;;11.10;97997.00;;;;5019048;28;20058;-61
2023/04/02 06:05:15;;;;;;;2.92;2.72;;;;;11.20;97999.00;;;;5018742;28;20142;-60
2023/04/02 06:08:05;;;;;;;3.58;2.88;;;;;11.30;98006.00;;;;5019072;28;20042;-62
2023/04/02 06:10:36;;;;;;;4.30;3.17;;;;;11.20;98013.00;;;;5019351;28;20491;-62
2023/04/02 06:13:14;;;;;;;3.53;3.22;;;;;11.30;98022.00;;;;5019588;28;20058;-62
2023/04/02 06:15:43;;;;;;;3.80;3.13;;;;;11.20;98015.00;;;;5014512;28;20046;-59
2023/04/02 06:18:25;;;;;;;3.38;3.08;;;;;11.30;98024.00;;;;5011754;28;20042;-62
2023/04/02 06:20:53;;;;;;;3.75;3.30;;;;;11.30;98027.00;;;;5011861;28;20057;-56
2023/04/02 06:23:30;;;;;;;3.72;3.38;;;;;11.40;98036.00;;;;5011531;28;20053;-56
2023/04/02 06:26:06;;;;;;;4.45;3.47;;;;;11.40;98030.00;;;;5011797;28;20454;-57
2023/04/02 06:28:49;;;;;;;4.63;3.00;;;;;11.40;98049.00;;;;5011415;28;20053;-61
2023/04/02 06:31:27;;;;;;;3.22;2.83;;;;;11.40;98049.00;;;;5028610;28;20139;-60
2023/04/02 06:33:55;;;;;;;11.55;7.85;;;;;11.40;98058.00;;;;5028840;28;20049;-60
2023/04/02 06:36:27;;;;;;;9.80;6.95;;;;;11.40;98059.00;;;;5011714;28;20049;-60
2023/04/02 06:39:06;;;;;;;8.38;6.07;;;;;11.50;98071.00;;;;5010921;28;20157;-61
2023/04/02 06:41:33;;;;;;;3.15;2.85;;;;;11.50;98064.00;;;;5011743;28;20453;-60
2023/04/02 06:44:18;;;;;;;11.52;8.23;;;;;11.50;98069.00;;;;5027810;28;20511;-60
2023/04/02 06:47:29;;;;;;;3.55;2.67;;;;;11.50;98067.00;;;;5015716;28;20419;-59
2023/04/02 06:50:05;;;;;;;3.38;2.92;;;;;11.40;98072.00;;;;5016135;28;20045;-61
2023/04/02 06:52:43;;;;;;;4.13;3.30;;;;;11.40;98083.00;;;;5015653;28;20148;-59
2023/04/02 06:55:26;;;;;;;5.05;3.80;;;;;11.30;98094.00;;;;5015426;28;20125;-60
2023/04/02 06:57:53;;;;;;;3.83;3.05;;;;;11.40;98084.00;;;;5015320;28;20050;-60
2023/04/02 07:00:20;;;;;;;4.05;2.97;;;;;11.30;98095.00;;;;5031026;28;20038;-60
2023/04/02 07:02:48;;;;;;;4.53;3.00;;;;;11.30;98091.00;;;;5015229;28;20546;-60
2023/04/02 07:05:15;;;;;;;6.30;3.83;;;;;11.20;98102.00;;;;5015345;28;20050;-61
2023/04/02 07:07:45;;;;;;;4.00;3.60;;;;;11.20;98104.00;;;;5015541;28;20052;-58
2023/04/02 07:10:13;;;;;;;5.72;3.85;;;;;11.20;98108.00;;;;5014800;28;20426;-60
2023/04/02 07:12:39;;;;;;;4.38;3.65;;;;;11.20;98115.00;;;;5015160;28;20050;-60
2023/04/02 07:15:06;;;;;;;6.50;4.00;;;;;11.20;98117.00;;;;5015345;28;20049;-60
2023/04/02 07:17:33;;;;;;;4.57;4.05;;;;;11.20;98117.00;;;;5014927;28;20557;-60
2023/04/02 07:20:00;;;;;;;4.97;3.92;;;;;11.30;98118.00;;;;5014484;28;20076;-60
2023/04/02 07:22:27;;;;;;;6.90;4.53;;;;;11.30;98128.00;;;;5015145;28;20460;-60
2023/04/02 07:24:57;;;;;;;4.70;4.30;;;;;11.30;98130.00;;;;5031917;28;20388;-59
2023/04/02 07:27:25;;;;;;;4.22;3.83;;;;;11.30;98133.00;;;;5016586;28;20073;-59
2023/04/02 07:29:51;;;;;;;4.53;3.90;;;;;11.30;98135.00;;;;5014711;28;20046;-61
2023/04/02 07:32:18;;;;;;;5.95;4.30;;;;;11.30;98142.00;;;;5015049;28;20050;-60
2023/04/02 07:34:46;;;;;;;6.82;4.40;;;;;11.40;98140.00;;;;5016142;28;20056;-60
2023/04/02 07:37:13;;;;;;;3.42;3.13;;;;;11.50;98144.00;;;;5016582;28;20041;-59
2023/04/02 07:39:40;;;;;;;3.72;3.42;;;;;11.60;98150.00;;;;5015302;28;20050;-58
2023/04/02 07:42:06;;;;;;;3.47;3.17;;;;;11.70;98156.00;;;;5015846;28;20569;-58
2023/04/02 07:44:33;;;;;;;5.03;4.53;;;;;11.80;98158.00;;;;5015930;28;20545;-57
2023/04/02 07:46:59;;;;;;;5.47;3.50;;;;;11.90;98164.00;;;;5015060;28;20487;-59
2023/04/02 07:49:26;;;;;;;3.10;2.90;;;;;12.00;98162.00;;;;5014238;28;20465;-58
2023/04/02 07:51:53;;;;;;;2.83;2.63;;;;;12.00;98160.00;;;;5015755;28;20053;-57
2023/04/02 07:54:19;;;;;;;3.65;3.35;;;;;12.10;98165.00;;;;5014410;28;20076;-58
2023/04/02 07:56:46;;;;;;;5.00;3.80;;;;;12.10;98170.00;;;;5014821;28;20046;-59
2023/04/02 07:59:12;;;;;;;2.10;2.00;;;;;12.10;98182.00;;;;5014976;28;20129;-57
2023/04/02 08:01:41;;;;;;;3.17;2.80;;;;;12.30;98179.00;;;;5014471;28;20077;-58
2023/04/02 08:04:20;;;;;;;5.10;4.00;;;;;12.60;98188.00;;;;5015613;28;20469;-59
2023/04/02 08:06:48;;;;;;;3.17;2.88;;;;;12.70;98191.00;;;;5014328;28;20132;-58
2023/04/02 08:09:15;;;;;;;3.17;2.90;;;;;12.60;98199.00;;;;5014873;28;20050;-60
2023/04/02 08:11:42;;;;;;;6.32;4.40;;;;;12.50;98200.00;;;;5013932;28;20049;-59
2023/04/02 08:14:09;;;;;;;3.45;3.10;;;;;12.50;98207.00;;;;5014228;28;20049;-59
2023/04/02 08:16:53;;;;;;;2.80;2.58;;;;;12.70;98220.00;;;;5013740;28;20458;-59
2023/04/02 08:19:19;;;;;;;;;;;;;12.60;98215.00;;;;5014944;28;20046;-60
2023/04/02 08:21:49;;;;;;;2.70;2.13;;;;;12.70;98221.00;;;;5014945;28;19921;-60
2023/04/02 08:24:18;;;;;;;3.65;1.88;;;;;12.70;98226.00;;;;5013735;28;20045;-60
2023/04/02 08:26:45;;;;;;;3.25;2.35;;;;;12.70;98232.00;;;;5014901;28;20635;-61
2023/04/02 08:29:12;;;;;;;2.45;2.25;;;;;12.90;98226.00;;;;5014266;28;20513;-61
2023/04/02 08:31:39;;;;;;;18.48;9.63;;;;;13.10;98236.00;;;;5014830;28;20378;-60
2023/04/02 08:34:06;;;;;;;6.70;3.85;;;;;13.00;98239.00;;;;5014817;28;20045;-60
2023/04/02 08:36:36;;;;;;;142.68;62.70;;;;;13.20;98240.00;;;;5014731;28;20046;-60
2023/04/02 08:39:04;;;;;;;88.60;48.17;;;;;13.00;98251.00;;;;5014237;28;20080;-60
2023/04/02 08:41:37;;;;;;;15.43;9.13;;;;;12.90;98256.00;;;;5014610;28;20058;-61
2023/04/02 08:44:22;;;;;;;6.38;4.55;;;;;12.90;98254.00;;;;5014379;28;20054;-61
2023/04/02 08:47:05;;;;;;;12.88;7.40;;;;;12.80;98254.00;;;;5014298;28;20046;-61
2023/04/02 08:49:52;;;;;;;52.03;24.65;;;;;12.60;98262.00;;;;5012405;28;20446;-60
2023/04/02 08:52:23;;;;;;;16.70;9.13;;;;;12.40;98271.00;;;;5012848;28;20054;-60
2023/04/02 08:54:50;;;;;;;2.13;1.90;;;;;12.30;98262.00;;;;5012740;28;20088;-61
2023/04/02 08:57:33;;;;;;;2.63;2.08;;;;;12.30;98269.00;;;;5012858;28;20502;-60
2023/04/02 09:00:09;;;;;;;3.22;2.65;;;;;12.40;98280.00;;;;5012264;28;20057;-60
2023/04/02 09:02:48;;;;;;;2.60;2.40;;;;;12.30;98279.00;;;;5013926;28;20572;-60
2023/04/02 09:05:19;;;;;;;2.20;2.00;;;;;12.50;98285.00;;;;5015085;28;20106;-61
2023/04/02 09:07:49;;;;;;;2.88;2.58;;;;;12.80;98289.00;;;;5014151;28;20053;-61
2023/04/02 09:10:17;;;;;;;3.78;2.75;;;;;12.90;98290.00;;;;5012006;28;20062;-61
2023/04/02 09:12:51;;;;;;;3.33;2.58;;;;;13.00;98291.00;;;;5013811;28;20414;-60
2023/04/02 09:15:32;;;;;;;;;;;;;13.10;98304.00;;;;5014099;28;20053;-60
2023/04/02 09:18:11;;;;;;;3.67;2.58;;;;;13.40;98297.00;;;;5013849;28;19921;-61
2023/04/02 09:20:39;;;;;;;4.30;3.05;;;;;13.80;98307.00;;;;5011767;28;20065;-61
2023/04/02 09:23:18;;;;;;;2.88;2.15;;;;;14.10;98302.00;;;;5012622;28;20045;-60
2023/04/02 09:25:51;;;;;;;2.03;1.83;;;;;14.30;98311.00;;;;5013447;28;20052;-60
2023/04/02 09:28:30;;;;;;;1.70;1.60;;;;;14.20;98321.00;;;;5011644;28;20049;-61
2023/04/02 09:31:32;;;;;;;3.00;1.98;;;;;14.10;98319.00;;;;5012057;28;20081;-60
2023/04/02 09:33:59;;;;;;;2.78;2.47;;;;;14.30;98324.00;;;;5003361;28;20411;-61
2023/04/02 09:36:36;;;;;;;2.20;2.00;;;;;14.30;98333.00;;;;5012292;28;20145;-61
2023/04/02 09:39:05;;;;;;;2.78;2.35;;;;;14.20;98337.00;;;;5011731;28;20041;-61
2023/04/02 09:41:34;;;;;;;4.72;3.33;;;;;13.80;98331.00;;;;5013396;28;20050;-61
2023/04/02 09:44:23;;;;;;;6.32;4.20;;;;;13.90;98334.00;;;;5012111;28;20461;-61
2023/04/02 09:46:53;;;;;;;4.57;4.20;;;;;13.90;98339.00;;;;5013321;28;20042;-61
2023/04/02 09:49:25;;;;;;;4.72;4.32;;;;;14.00;98346.00;;;;5011741;28;20037;-61
2023/04/02 09:52:08;;;;;;;4.00;2.78;;;;;14.00;98350.00;;;;5013945;28;20038;-61
2023/04/02 09:54:40;;;;;;;2.55;2.35;;;;;14.00;98352.00;;;;5013348;28;20037;-61
2023/04/02 09:57:23;;;;;;;5.00;3.33;;;;;14.00;98353.00;;;;5013106;28;20038;-61
2023/04/02 10:00:29;;;;;;;3.30;3.00;;;;;13.80;98359.00;;;;5012522;28;20041;-61
2023/04/02 10:03:27;;;;;;;1.73;1.63;;;;;13.80;98376.00;;;;5013185;28;20052;-60
2023/04/02 10:06:07;;;;;;;1.88;1.50;;;;;13.50;98370.00;;;;5013006;28;20051;-61
2023/04/02 10:08:36;;;;;;;2.45;2.17;;;;;13.30;98375.00;;;;5012386;28;20042;-62
2023/04/02 10:11:09;;;;;;;12.40;7.60;;;;;13.30;98385.00;;;;5012691;28;20046;-61
2023/04/02 10:13:48;;;;;;;3.07;2.53;;;;;13.20;98381.00;;;;5011750;28;20054;-61
2023/04/02 10:16:25;;;;;;;2.70;2.50;;;;;13.20;98390.00;;;;5012896;28;20285;-61
2023/04/02 10:18:54;;;;;;;2.00;1.80;;;;;13.10;98391.00;;;;5011265;28;20045;-61
2023/04/02 10:21:27;;;;;;;2.03;1.80;;;;;12.90;98399.00;;;;5012531;28;20049;-61
2023/04/02 10:23:57;;;;;;;1.70;1.60;;;;;12.80;98403.00;;;;5012852;28;20104;-60
2023/04/02 10:26:57;;;;;;;1.98;1.70;;;;;12.80;98402.00;;;;5011780;28;20499;-61
2023/04/02 10:29:34;;;;;;;1.73;1.63;;;;;12.90;98406.00;;;;5010791;28;20046;-62
2023/04/02 10:32:10;;;;;;;2.10;1.80;;;;;12.90;98412.00;;;;5012517;28;20545;-61
2023/04/02 10:35:00;;;;;;;1.98;1.85;;;;;13.00;98412.00;;;;5012965;28;20491;-61
2023/04/02 10:37:47;;;;;;;2.20;2.10;;;;;12.70;98425.00;;;;5012803;28;20038;-62
2023/04/02 10:40:28;;;;;;;2.70;2.50;;;;;12.30;98424.00;;;;5011955;28;20046;-61
2023/04/02 10:42:55;;;;;;;2.03;1.92;;;;;12.10;98439.00;;;;5012613;28;20100;-61
2023/04/02 10:45:51;;;;;;;3.47;3.15;;;;;12.00;98440.00;;;;5012441;28;20506;-61
2023/04/02 10:48:37;;;;;;;4.68;3.45;;;;;12.10;98439.00;;;;5014286;28;20038;-61
2023/04/02 10:51:32;;;;;;;4.93;3.30;;;;;12.20;98446.00;;;;5013986;28;20106;-61
2023/04/02 10:54:01;;;;;;;;;;;;;12.30;98450.00;;;;5013263;28;20045;-60
2023/04/02 10:56:30;;;;;;;1.10;1.10;;;;;12.20;98454.00;;;;5012661;28;19925;-60
2023/04/02 10:59:17;;;;;;;1.70;1.60;;;;;12.20;98460.00;;;;5012476;28;20045;-60
2023/04/02 11:01:46;;;;;;;1.23;1.13;;;;;11.90;98467.00;;;;5012066;28;20045;-60
2023/04/02 11:04:20;;;;;;;1.17;0.98;;;;;11.90;98472.00;;;;5019688;28;20074;-61
2023/04/02 11:06:55;;;;;;;2.42;1.30;;;;;12.00;98478.00;;;;5022168;28;20050;-61
2023/04/02 11:09:42;;;;;;;1.83;1.10;;;;;11.80;98489.00;;;;5020939;28;20053;-61
2023/04/02 11:12:22;;;;;;;1.25;1.17;;;;;11.60;98494.00;;;;5017982;28;20076;-60
2023/04/02 11:14:50;;;;;;;0.90;0.90;;;;;11.40;98483.00;;;;5020925;28;20057;-61
2023/04/02 11:17:18;;;;;;;1.27;1.27;;;;;11.40;98490.00;;;;5018148;28;20141;-60
2023/04/02 11:19:45;;;;;;;1.30;1.23;;;;;11.40;98501.00;;;;5017514;28;20084;-60
2023/04/02 11:22:23;;;;;;;1.40;1.30;;;;;11.40;98505.00;;;;5018706;28;20100;-60
2023/04/02 11:24:52;;;;;;;1.10;1.10;;;;;11.30;98510.00;;;;5019666;28;20077;-60
2023/04/02 11:27:35;;;;;;;1.02;1.02;;;;;11.50;98523.00;;;;5016284;28;20046;-60
2023/04/02 11:30:16;;;;;;;0.95;0.95;;;;;11.50;98525.00;;;;5012158;28;20418;-60
2023/04/02 11:32:48;;;;;;;0.90;0.90;;;;;11.30;98536.00;;;;5014896;28;20045;-60
2023/04/02 11:35:30;;;;;;;1.20;1.20;;;;;11.10;98542.00;;;;5016035;28;20077;-60
2023/04/02 11:38:27;;;;;;;1.50;1.20;;;;;11.10;98545.00;;;;5014818;28;20446;-60
2023/04/02 11:40:55;;;;;;;1.30;1.20;;;;;11.10;98555.00;;;;5015613;28;20060;-60
2023/04/02 11:43:36;;;;;;;1.35;1.25;;;;;11.00;98555.00;;;;5015759;28;20128;-59
2023/04/02 11:46:15;;;;;;;1.20;1.20;;;;;11.00;98563.00;;;;5014864;28;20064;-60
2023/04/02 11:48:42;;;;;;;1.30;1.20;;;;;10.90;98554.00;;;;5015036;28;20049;-60
2023/04/02 11:51:29;;;;;;;2.70;1.50;;;;;10.70;98566.00;;;;5015513;28;20052;-60
2023/04/02 11:53:59;;;;;;;1.48;1.30;;;;;10.80;98569.00;;;;5013942;28;20053;-60
2023/04/02 11:56:51;;;;;;;2.38;2.15;;;;;10.80;98574.00;;;;5015452;28;20038;-60
2023/04/02 11:59:28;;;;;;;1.90;1.20;;;;;10.80;98587.00;;;;5014595;28;20042;-60
2023/04/02 12:02:20;;;;;;;3.53;2.90;;;;;10.60;98586.00;;;;5015070;28;20045;-60
2023/04/02 12:05:03;;;;;;;4.75;4.25;;;;;10.40;98584.00;;;;5015341;28;20038;-60
2023/04/02 12:07:50;;;;;;;2.92;2.58;;;;;10.30;98593.00;;;;5015162;28;20044;-60
2023/04/02 12:10:18;;;;;;;4.22;3.90;;;;;10.20;98602.00;;;;5014442;28;20046;-60
2023/04/02 12:12:45;;;;;;;3.33;2.80;;;;;10.20;98607.00;;;;5014942;28;20046;-60
2023/04/02 12:15:31;;;;;;;2.22;2.05;;;;;10.10;98604.00;;;;5015105;28;20491;-60
2023/04/02 12:18:11;;;;;;;1.50;1.40;;;;;10.00;98610.00;;;;5014965;28;20112;-60
2023/04/02 12:20:38;;;;;;;1.10;1.10;;;;;9.90;98611.00;;;;5014245;28;20053;-60
2023/04/02 12:23:05;;;;;;;2.63;1.55;;;;;9.80;98612.00;;;;5014991;28;20048;-63
2023/04/02 12:25:38;;;;;;;1.73;1.55;;;;;9.80;98624.00;;;;5014620;28;20049;-60
2023/04/02 12:28:08;;;;;;;1.48;1.38;;;;;9.80;98624.00;;;;5016019;28;20038;-62
2023/04/02 12:30:37;;;;;;;1.48;1.38;;;;;9.80;98625.00;;;;5017466;28;20060;-63
2023/04/02 12:33:19;;;;;;;1.42;1.33;;;;;9.80;98627.00;;;;5018468;28;20094;-62
2023/04/02 12:35:49;;;;;;;1.50;1.40;;;;;9.80;98638.00;;;;5018583;28;20041;-62
2023/04/02 12:38:22;;;;;;;1.75;1.65;;;;;9.70;98637.00;;;;5017104;28;20046;-60
2023/04/02 12:40:57;;;;;;;2.38;1.80;;;;;9.60;98643.00;;;;5017672;28;20053;-62
2023/04/02 12:43:28;;;;;;;1.50;1.40;;;;;9.50;98642.00;;;;5017273;28;20050;-61
2023/04/02 12:45:58;;;;;;;1.30;1.30;;;;;9.40;98644.00;;;;5017734;28;20079;-64
2023/04/02 12:48:26;;;;;;;1.50;1.40;;;;;9.40;98652.00;;;;5017086;28;20380;-62
2023/04/02 12:50:55;;;;;;;1.60;1.50;;;;;9.30;98656.00;;;;5015568;28;20052;-62
2023/04/02 12:53:28;;;;;;;1.70;1.60;;;;;9.10;98662.00;;;;5017042;28;20042;-62
2023/04/02 12:55:55;;;;;;;1.70;1.60;;;;;9.10;98662.00;;;;5016232;28;20057;-62
2023/04/02 12:58:32;;;;;;;2.72;1.83;;;;;9.10;98666.00;;;;5031867;28;20053;-59
2023/04/02 13:01:19;;;;;;;2.92;2.20;;;;;9.00;98661.00;;;;5014154;28;20092;-63